createdAt,value
2019-04-11T00:01:54.671Z,9.00
2019-04-11T00:04:26.297Z,9.00
2019-04-11T00:10:22.983Z,8.90
2019-04-11T00:12:54.832Z,9.00
2019-04-11T00:15:26.719Z,9.00
2019-04-11T00:18:10.307Z,9.10
2019-04-11T00:20:46.443Z,9.20
2019-04-11T00:23:18.368Z,9.20
2019-04-11T00:25:49.782Z,9.00
2019-04-11T00:28:21.595Z,9.10
2019-04-11T00:30:53.318Z,9.00
2019-04-11T00:33:26.818Z,9.00
2019-04-11T00:35:58.308Z,9.10
2019-04-11T00:38:30.109Z,9.20
2019-04-11T00:41:01.699Z,9.20
2019-04-11T00:43:37.741Z,9.30
2019-04-11T00:46:05.959Z,9.20
2019-04-11T00:48:38.744Z,9.20
2019-04-11T00:51:10.199Z,9.10
2019-04-11T00:53:42.378Z,9.10
2019-04-11T00:56:14.119Z,9.10
2019-04-11T00:58:46.329Z,9.10
2019-04-11T01:01:17.741Z,9.00
2019-04-11T01:10:26.457Z,9.00
2019-04-11T01:12:58.651Z,9.10
2019-04-11T01:15:31.392Z,9.10
2019-04-11T01:18:03.614Z,9.10
2019-04-11T01:20:35.542Z,9.00
2019-04-11T01:23:06.970Z,9.10
2019-04-11T01:25:38.937Z,8.90
2019-04-11T01:28:29.341Z,9.10
2019-04-11T01:31:09.783Z,9.10
2019-04-11T01:33:42.129Z,9.00
2019-04-11T01:36:13.799Z,8.90
2019-04-11T01:38:49.527Z,8.90
2019-04-11T01:41:21.107Z,8.90
2019-04-11T01:44:12.180Z,8.90
2019-04-11T01:46:44.437Z,8.90
2019-04-11T01:49:20.569Z,8.90
2019-04-11T01:51:52.001Z,8.90
2019-04-11T01:54:23.767Z,8.90
2019-04-11T01:56:55.814Z,9.00
2019-04-11T01:59:27.162Z,9.00
2019-04-11T02:02:12.138Z,8.70
2019-04-11T02:04:48.211Z,8.80
2019-04-11T02:07:20.593Z,8.70
2019-04-11T02:09:52.581Z,8.70
2019-04-11T02:12:24.201Z,8.70
2019-04-11T02:14:55.553Z,8.80
2019-04-11T02:17:27.481Z,8.70
2019-04-11T02:19:58.841Z,8.70
2019-04-11T02:22:40.398Z,8.60
2019-04-11T02:25:24.827Z,8.60
2019-04-11T02:27:56.400Z,8.70
2019-04-11T02:30:27.931Z,8.60
2019-04-11T02:33:00.813Z,8.60
2019-04-11T02:39:22.563Z,8.50
2019-04-11T02:41:54.874Z,8.50
2019-04-11T02:44:39.527Z,8.60
2019-04-11T02:47:08.470Z,8.50
2019-04-11T02:49:35.224Z,8.60
2019-04-11T02:52:07.850Z,8.60
2019-04-11T02:54:42.962Z,8.60
2019-04-11T02:57:16.236Z,8.40
2019-04-11T02:59:48.997Z,8.40
2019-04-11T03:02:21.497Z,8.50
2019-04-11T03:04:55.493Z,8.50
2019-04-11T03:07:29.898Z,8.60
2019-04-11T03:10:03.155Z,8.60
2019-04-11T03:12:36.110Z,8.70
2019-04-11T03:15:24.215Z,8.80
2019-04-11T03:17:44.520Z,8.80
2019-04-11T03:20:25.847Z,8.70
2019-04-11T03:22:54.854Z,8.60
2019-04-11T03:25:22.616Z,8.70
2019-04-11T03:27:54.321Z,8.90
2019-04-11T03:30:42.425Z,9.00
2019-04-11T03:33:53.977Z,9.00
2019-04-11T03:36:22.024Z,8.90
2019-04-11T03:38:31.591Z,8.70
2019-04-11T03:40:57.863Z,8.70
2019-04-11T03:43:28.051Z,8.70
2019-04-11T03:46:10.474Z,8.60
2019-04-11T03:48:32.956Z,8.50
2019-04-11T03:50:57.329Z,8.60
2019-04-11T03:53:29.946Z,8.60
2019-04-11T03:56:03.868Z,8.60
2019-04-11T03:58:35.147Z,8.60
2019-04-11T04:01:10.842Z,8.50
2019-04-11T04:03:40.262Z,8.40
2019-04-11T04:06:12.961Z,8.50
2019-04-11T04:08:44.706Z,8.50
2019-04-11T04:11:26.744Z,8.40
2019-04-11T04:14:04.326Z,8.30
2019-04-11T04:16:48.292Z,8.20
2019-04-11T04:19:40.247Z,8.10
2019-04-11T04:22:24.775Z,8.20
2019-04-11T04:24:56.411Z,8.40
2019-04-11T04:27:30.070Z,8.30
2019-04-11T04:30:04.187Z,8.20
2019-04-11T04:32:36.085Z,8.20
2019-04-11T04:35:12.721Z,8.20
2019-04-11T04:37:43.450Z,8.10
2019-04-11T04:40:30.972Z,8.20
2019-04-11T04:42:52.763Z,8.20
2019-04-11T04:45:21.432Z,8.20
2019-04-11T04:48:00.463Z,8.30
2019-04-11T04:50:26.673Z,8.10
2019-04-11T04:53:00.309Z,8.00
2019-04-11T04:55:37.671Z,8.00
2019-04-11T04:58:09.251Z,7.80
2019-04-11T05:00:40.411Z,8.00
2019-04-11T05:03:13.533Z,7.90
2019-04-11T05:05:46.425Z,7.90
2019-04-11T05:08:18.591Z,7.90
2019-04-11T05:10:51.283Z,8.00
2019-04-11T05:13:23.946Z,8.00
2019-04-11T05:16:06.914Z,7.90
2019-04-11T05:18:48.385Z,8.10
2019-04-11T05:21:19.863Z,7.90
2019-04-11T05:23:52.162Z,7.80
2019-04-11T05:26:23.727Z,7.90
2019-04-11T05:28:55.313Z,7.80
2019-04-11T05:31:26.952Z,7.90
2019-04-11T05:33:59.376Z,7.90
2019-04-11T05:36:34.499Z,7.80
2019-04-11T05:39:12.798Z,7.90
2019-04-11T05:41:46.702Z,7.90
2019-04-11T05:44:18.756Z,8.00
2019-04-11T05:46:56.236Z,8.00
2019-04-11T05:49:40.332Z,7.90
2019-04-11T05:52:12.189Z,8.00
2019-04-11T05:54:49.068Z,8.00
2019-04-11T05:57:23.798Z,8.10
2019-04-11T05:59:54.425Z,8.00
2019-04-11T06:02:31.567Z,7.90
2019-04-11T06:05:30.928Z,7.90
2019-04-11T06:08:30.733Z,8.00
2019-04-11T06:11:29.143Z,8.10
2019-04-11T06:14:09.292Z,7.90
2019-04-11T06:16:48.774Z,8.00
2019-04-11T06:19:43.776Z,8.00
2019-04-11T06:22:19.742Z,8.00
2019-04-11T06:25:30.393Z,7.70
2019-04-11T06:28:15.902Z,7.60
2019-04-11T06:31:06.079Z,7.80
2019-04-11T06:33:40.749Z,7.80
2019-04-11T06:36:29.998Z,7.80
2019-04-11T06:39:33.540Z,7.80
2019-04-11T06:45:57.926Z,7.70
2019-04-11T06:48:49.386Z,7.80
2019-04-11T06:51:32.462Z,7.80
2019-04-11T06:54:41.394Z,7.90
2019-04-11T06:57:18.007Z,7.90
2019-04-11T06:59:50.397Z,7.80
2019-04-11T07:02:24.508Z,7.80
2019-04-11T07:05:25.059Z,7.80
2019-04-11T07:08:07.991Z,7.80
2019-04-11T07:10:46.739Z,7.80
2019-04-11T07:13:45.469Z,7.70
2019-04-11T07:16:18.436Z,7.60
2019-04-11T07:22:33.140Z,7.40
2019-04-11T07:25:24.884Z,7.60
2019-04-11T07:28:15.055Z,7.70
2019-04-11T07:31:04.513Z,7.70
2019-04-11T07:34:08.799Z,7.70
2019-04-11T07:37:00.259Z,7.50
2019-04-11T07:39:56.153Z,8.10
2019-04-11T07:43:01.884Z,8.10
2019-04-11T07:45:37.594Z,8.00
2019-04-11T07:48:13.593Z,8.00
2019-04-11T07:50:44.926Z,8.00
2019-04-11T07:53:18.130Z,7.90
2019-04-11T07:55:51.006Z,8.00
2019-04-11T07:58:29.436Z,8.30
2019-04-11T08:01:36.069Z,8.10
2019-04-11T08:04:38.678Z,8.20
2019-04-11T08:07:49.039Z,8.10
2019-04-11T08:10:27.421Z,8.10
2019-04-11T08:13:14.386Z,8.20
2019-04-11T08:16:04.310Z,8.20
2019-04-11T08:19:21.132Z,8.20
2019-04-11T08:22:16.976Z,8.20
2019-04-11T08:25:11.175Z,8.30
2019-04-11T08:27:54.688Z,8.30
2019-04-11T08:30:20.917Z,8.20
2019-04-11T08:33:00.314Z,8.10
2019-04-11T08:35:53.472Z,8.10
2019-04-11T08:38:29.096Z,8.20
2019-04-11T08:41:19.784Z,8.10
2019-04-11T08:43:51.394Z,8.00
2019-04-11T08:46:27.364Z,8.30
2019-04-11T08:49:01.528Z,8.30
2019-04-11T08:51:52.221Z,8.30
2019-04-11T08:54:42.208Z,8.30
2019-04-11T08:57:13.809Z,8.30
2019-04-11T08:59:55.869Z,8.40
2019-04-11T09:02:35.360Z,8.20
2019-04-11T09:05:29.635Z,8.10
2019-04-11T09:08:18.758Z,8.20
2019-04-11T09:11:10.705Z,8.40
2019-04-11T09:14:08.768Z,8.50
2019-04-11T09:16:58.290Z,8.50
2019-04-11T09:19:45.281Z,8.60
2019-04-11T09:22:51.200Z,8.70
2019-04-11T09:25:55.399Z,8.60
2019-04-11T09:28:39.820Z,8.60
2019-04-11T09:31:31.662Z,8.80
2019-04-11T09:34:35.571Z,8.80
2019-04-11T09:37:33.809Z,8.70
2019-04-11T09:40:26.362Z,8.70
2019-04-11T09:43:29.286Z,8.60
2019-04-11T09:46:22.281Z,8.70
2019-04-11T09:49:22.705Z,8.90
2019-04-11T09:52:00.558Z,8.90
2019-04-11T09:54:56.826Z,8.90
2019-04-11T09:57:42.519Z,8.90
2019-04-11T10:00:34.635Z,9.00
2019-04-11T10:03:15.204Z,9.00
2019-04-11T10:06:07.234Z,9.10
2019-04-11T10:08:41.617Z,9.30
2019-04-11T10:11:38.183Z,9.00
2019-04-11T10:14:11.396Z,8.90
2019-04-11T10:17:00.586Z,8.90
2019-04-11T10:19:46.523Z,9.10
2019-04-11T10:22:49.244Z,9.30
2019-04-11T10:25:39.518Z,9.60
2019-04-11T10:28:30.382Z,9.30
2019-04-11T10:31:20.387Z,9.60
2019-04-11T10:34:29.963Z,9.90
2019-04-11T10:37:04.918Z,9.90
2019-04-11T10:39:55.451Z,10.20
2019-04-11T10:42:27.066Z,10.70
2019-04-11T10:45:18.446Z,10.90
2019-04-11T10:47:51.507Z,11.30
2019-04-11T10:50:44.923Z,11.70
2019-04-11T10:53:16.704Z,11.10
2019-04-11T10:56:08.510Z,11.10
2019-04-11T10:58:51.754Z,11.20
2019-04-11T11:01:42.197Z,10.40
2019-04-11T11:04:19.969Z,10.90
2019-04-11T11:06:54.254Z,11.30
2019-04-11T11:09:50.723Z,11.30
2019-04-11T11:12:41.463Z,10.90
2019-04-11T11:15:17.583Z,11.10
2019-04-11T11:20:55.609Z,10.90
2019-04-11T11:23:43.002Z,10.80
2019-04-11T11:26:39.209Z,10.60
2019-04-11T11:29:47.764Z,10.50
2019-04-11T11:32:34.064Z,10.20
2019-04-11T11:35:22.470Z,10.20
2019-04-11T11:37:57.537Z,10.50
2019-04-11T11:40:46.394Z,10.90
2019-04-11T11:43:25.926Z,10.80
2019-04-11T11:46:19.654Z,10.60
2019-04-11T11:48:59.686Z,10.80
2019-04-11T11:51:52.417Z,10.90
2019-04-11T11:54:32.470Z,11.20
2019-04-11T11:57:08.680Z,11.70
2019-04-11T11:59:56.581Z,11.60
2019-04-11T12:02:36.883Z,11.20
2019-04-11T12:05:18.568Z,11.40
2019-04-11T12:08:08.760Z,11.90
2019-04-11T12:10:54.472Z,12.10
2019-04-11T12:13:45.461Z,12.30
2019-04-11T12:16:26.168Z,12.40
2019-04-11T12:19:06.690Z,11.60
2019-04-11T12:21:38.881Z,11.50
2019-04-11T12:24:23.484Z,11.60
2019-04-11T12:27:02.354Z,11.90
2019-04-11T12:29:50.421Z,11.80
2019-04-11T12:32:24.580Z,11.00
2019-04-11T12:35:30.575Z,11.40
2019-04-11T12:38:07.202Z,11.50
2019-04-11T12:40:55.954Z,11.80
2019-04-11T12:43:37.134Z,11.80
2019-04-11T12:46:37.671Z,11.60
2019-04-11T12:49:21.213Z,11.80
2019-04-11T12:52:10.376Z,12.10
2019-04-11T12:54:42.563Z,12.20
2019-04-11T12:57:42.051Z,12.30
2019-04-11T13:00:26.331Z,11.90
2019-04-11T13:03:16.168Z,11.50
2019-04-11T13:05:47.672Z,11.40
2019-04-11T13:08:43.766Z,11.30
2019-04-11T13:11:15.666Z,11.40
2019-04-11T13:13:58.095Z,11.30
2019-04-11T13:16:29.168Z,11.30
2019-04-11T13:19:26.125Z,11.30
2019-04-11T13:22:00.282Z,11.10
2019-04-11T13:24:50.450Z,10.90
2019-04-11T13:27:46.206Z,10.80
2019-04-11T13:30:36.662Z,10.90
2019-04-11T13:33:12.729Z,11.00
2019-04-11T13:36:05.784Z,11.00
2019-04-11T13:38:51.585Z,11.00
2019-04-11T13:41:57.536Z,11.00
2019-04-11T13:44:33.503Z,11.10
2019-04-11T13:47:22.375Z,11.10
2019-04-11T13:49:58.868Z,11.20
2019-04-11T13:52:59.256Z,11.10
2019-04-11T13:55:36.140Z,11.10
2019-04-11T13:58:38.914Z,11.10
2019-04-11T14:01:16.882Z,11.20
2019-04-11T14:04:03.236Z,11.20
2019-04-11T14:06:35.436Z,11.10
2019-04-11T14:09:30.526Z,11.10
2019-04-11T14:12:04.818Z,11.10
2019-04-11T14:14:37.904Z,11.10
2019-04-11T14:17:35.266Z,11.20
2019-04-11T14:20:29.004Z,10.90
2019-04-11T14:23:15.264Z,11.00
2019-04-11T14:26:29.310Z,11.00
2019-04-11T14:29:22.595Z,11.10
2019-04-11T14:31:57.484Z,11.10
2019-04-11T14:34:53.724Z,11.10
2019-04-11T14:37:37.713Z,11.10
2019-04-11T14:40:10.940Z,11.10
2019-04-11T14:43:06.966Z,11.10
2019-04-11T14:46:15.358Z,11.10
2019-04-11T14:48:49.790Z,11.00
2019-04-11T14:51:55.123Z,11.10
2019-04-11T14:54:38.320Z,11.10
2019-04-11T14:57:17.688Z,11.20
2019-04-11T14:59:54.142Z,11.10
2019-04-11T15:02:37.379Z,11.20
2019-04-11T15:05:30.706Z,11.30
2019-04-11T15:08:01.754Z,11.10
2019-04-11T15:10:48.856Z,11.10
2019-04-11T15:13:24.742Z,11.10
2019-04-11T15:16:20.960Z,11.20
2019-04-11T15:18:56.512Z,11.30
2019-04-11T15:21:57.037Z,11.30
2019-04-11T15:24:28.612Z,11.40
2019-04-11T15:27:17.862Z,11.40
2019-04-11T15:29:48.958Z,11.50
2019-04-11T15:32:37.877Z,11.40
2019-04-11T15:35:14.031Z,11.60
2019-04-11T15:38:02.783Z,11.60
2019-04-11T15:40:46.490Z,11.40
2019-04-11T15:43:41.871Z,11.50
2019-04-11T15:46:23.980Z,11.60
2019-04-11T15:49:20.865Z,11.60
2019-04-11T15:51:54.141Z,11.50
2019-04-11T15:54:44.485Z,11.60
2019-04-11T15:57:22.314Z,11.70
2019-04-11T16:00:24.500Z,11.70
2019-04-11T16:03:03.940Z,11.80
2019-04-11T16:06:09.540Z,11.70
2019-04-11T16:08:43.750Z,11.90
2019-04-11T16:11:52.802Z,11.90
2019-04-11T16:14:38.306Z,12.00
2019-04-11T16:17:34.618Z,12.10
2019-04-11T16:20:26.018Z,12.10
2019-04-11T16:23:17.312Z,12.10
2019-04-11T16:25:51.421Z,12.00
2019-04-11T16:28:53.847Z,11.80
2019-04-11T16:31:29.560Z,11.60
2019-04-11T16:34:10.163Z,11.60
2019-04-11T16:36:52.649Z,11.60
2019-04-11T16:39:42.874Z,11.70
2019-04-11T16:42:24.935Z,11.80
2019-04-11T16:45:25.076Z,11.70
2019-04-11T16:48:04.669Z,11.70
2019-04-11T16:50:36.965Z,11.80
2019-04-11T16:53:10.605Z,11.90
2019-04-11T16:55:43.192Z,12.10
2019-04-11T16:58:16.979Z,11.90
2019-04-11T17:00:52.169Z,12.00
2019-04-11T17:03:24.769Z,11.90
2019-04-11T17:06:09.798Z,11.80
2019-04-11T17:08:56.452Z,11.80
2019-04-11T17:11:28.252Z,11.80
2019-04-11T17:13:59.314Z,11.70
2019-04-11T17:16:31.026Z,11.70
2019-04-11T17:19:05.011Z,11.70
2019-04-11T17:21:43.187Z,11.70
2019-04-11T17:24:08.599Z,11.80
2019-04-11T17:26:39.846Z,11.70
2019-04-11T17:29:11.224Z,11.80
2019-04-11T17:31:42.892Z,11.60
2019-04-11T17:34:14.174Z,11.60
2019-04-11T17:36:45.540Z,11.50
2019-04-11T17:39:16.822Z,11.50
2019-04-11T17:41:48.463Z,11.50
2019-04-11T17:44:19.542Z,11.50
2019-04-11T17:46:50.822Z,11.30
2019-04-11T17:49:22.222Z,11.30
2019-04-11T17:51:56.042Z,11.30
2019-04-11T17:54:26.590Z,11.30
2019-04-11T17:56:59.125Z,11.30
2019-04-11T17:59:31.583Z,11.30
2019-04-11T18:02:05.538Z,11.40
2019-04-11T18:04:36.782Z,11.40
2019-04-11T18:07:08.282Z,11.30
2019-04-11T18:09:39.635Z,11.10
2019-04-11T18:12:11.196Z,11.20
2019-04-11T18:14:42.400Z,11.20
2019-04-11T18:17:13.819Z,11.10
2019-04-11T18:19:46.350Z,11.10
2019-04-11T18:22:18.331Z,11.00
2019-04-11T18:24:50.217Z,11.00
2019-04-11T18:27:22.438Z,10.90
2019-04-11T18:29:53.696Z,10.80
2019-04-11T18:32:25.872Z,10.70
2019-04-11T18:34:56.950Z,10.60
2019-04-11T18:37:29.762Z,10.30
2019-04-11T18:40:01.272Z,10.40
2019-04-11T18:42:33.723Z,10.40
2019-04-11T18:45:06.721Z,10.40
2019-04-11T18:47:38.072Z,10.40
2019-04-11T18:50:09.606Z,10.20
2019-04-11T18:52:40.809Z,10.30
2019-04-11T18:55:12.127Z,10.30
2019-04-11T18:57:43.350Z,10.30
2019-04-11T19:00:19.472Z,10.20
2019-04-11T19:02:50.722Z,10.10
2019-04-11T19:05:28.571Z,10.20
2019-04-11T19:07:54.930Z,10.20
2019-04-11T19:10:25.990Z,10.30
2019-04-11T19:12:57.620Z,10.10
2019-04-11T19:15:28.729Z,10.00
2019-04-11T19:18:06.142Z,9.90
2019-04-11T19:20:32.868Z,9.80
2019-04-11T19:23:07.711Z,9.90
2019-04-11T19:25:37.004Z,9.80
2019-04-11T19:28:08.381Z,9.70
2019-04-11T19:30:39.421Z,9.60
2019-04-11T19:33:10.672Z,9.60
2019-04-11T19:35:42.262Z,9.60
2019-04-11T19:38:25.647Z,9.70
2019-04-11T19:40:57.774Z,9.80
2019-04-11T19:43:28.932Z,9.70
2019-04-11T19:46:00.025Z,9.60
2019-04-11T19:48:31.460Z,9.50
2019-04-11T19:51:02.505Z,9.40
2019-04-11T19:53:33.961Z,9.30
2019-04-11T19:56:15.749Z,9.20
2019-04-11T19:58:47.609Z,9.10
2019-04-11T20:01:22.817Z,9.20
2019-04-11T20:03:54.089Z,9.20
2019-04-11T20:06:25.432Z,9.20
2019-04-11T20:08:56.899Z,9.30
2019-04-11T20:11:29.348Z,9.20
2019-04-11T20:14:02.825Z,9.30
2019-04-11T20:16:41.783Z,9.40
2019-04-11T20:19:06.697Z,9.30
2019-04-11T20:21:38.425Z,9.20
2019-04-11T20:24:14.164Z,9.20
2019-04-11T20:26:44.443Z,9.00
2019-04-11T20:29:15.775Z,9.00
2019-04-11T20:31:46.849Z,9.10
2019-04-11T20:34:27.472Z,9.00
2019-04-11T20:36:50.899Z,8.90
2019-04-11T20:39:22.200Z,9.00
2019-04-11T20:41:54.126Z,9.00
2019-04-11T20:44:27.441Z,8.90
2019-04-11T20:47:00.493Z,9.00
2019-04-11T20:49:32.830Z,8.90
2019-04-11T20:52:03.865Z,8.90
2019-04-11T20:54:35.952Z,8.80
2019-04-11T20:57:11.906Z,8.80
2019-04-11T20:59:42.232Z,8.60
2019-04-11T21:02:13.700Z,8.60
2019-04-11T21:04:45.223Z,8.60
2019-04-11T21:07:16.426Z,8.60
2019-04-11T21:09:47.714Z,8.50
2019-04-11T21:12:18.768Z,8.40
2019-04-11T21:14:50.008Z,8.40
2019-04-11T21:17:21.032Z,8.40
2019-04-11T21:19:53.248Z,8.40
2019-04-11T21:22:24.880Z,8.50
2019-04-11T21:24:56.225Z,8.30
2019-04-11T21:27:29.486Z,8.00
2019-04-11T21:30:01.072Z,8.00
2019-04-11T21:32:33.482Z,8.00
2019-04-11T21:35:05.096Z,8.00
2019-04-11T21:37:36.803Z,7.90
2019-04-11T21:40:09.745Z,7.80
2019-04-11T21:42:40.895Z,7.80
2019-04-11T21:45:12.236Z,7.80
2019-04-11T21:47:43.284Z,7.70
2019-04-11T21:50:14.870Z,7.80
2019-04-11T21:52:46.649Z,7.60
2019-04-11T21:55:18.054Z,7.60
2019-04-11T21:57:49.799Z,7.60
2019-04-11T22:00:28.532Z,7.40
2019-04-11T22:03:01.671Z,7.40
2019-04-11T22:05:34.207Z,7.40
2019-04-11T22:08:06.475Z,7.40
2019-04-11T22:10:40.052Z,7.30
2019-04-11T22:13:10.837Z,7.10
2019-04-11T22:15:43.152Z,7.20
2019-04-11T22:18:16.671Z,7.10
2019-04-11T22:20:47.930Z,7.10
2019-04-11T22:23:18.991Z,7.10
2019-04-11T22:25:50.124Z,7.10
2019-04-11T22:28:22.014Z,7.00
2019-04-11T22:30:55.090Z,6.90
2019-04-11T22:33:37.192Z,7.00
2019-04-11T22:36:08.520Z,6.90
2019-04-11T22:38:39.547Z,6.70
2019-04-11T22:41:10.909Z,6.70
2019-04-11T22:43:41.947Z,6.60
2019-04-11T22:46:20.566Z,6.60
2019-04-11T22:48:46.092Z,6.70
2019-04-11T22:51:17.439Z,6.70
2019-04-11T22:53:59.761Z,6.70
2019-04-11T22:56:21.671Z,6.60
2019-04-11T22:58:52.875Z,6.50
2019-04-11T23:01:24.004Z,6.50
2019-04-11T23:03:58.634Z,6.40
2019-04-11T23:06:29.787Z,6.30
2019-04-11T23:09:01.813Z,6.30
2019-04-11T23:11:34.787Z,6.40
2019-04-11T23:14:05.912Z,6.40
2019-04-11T23:16:37.179Z,6.30
2019-04-11T23:19:08.333Z,6.30
2019-04-11T23:21:42.158Z,6.30
2019-04-11T23:24:12.498Z,6.40
2019-04-11T23:26:44.115Z,6.30
2019-04-11T23:29:16.138Z,6.40
2019-04-11T23:31:50.402Z,6.40
2019-04-11T23:34:22.165Z,6.30
2019-04-11T23:36:54.121Z,6.30
2019-04-11T23:39:25.155Z,6.30
2019-04-11T23:41:56.607Z,6.20
2019-04-11T23:44:27.698Z,6.30
2019-04-11T23:46:59.113Z,6.10
2019-04-11T23:49:30.127Z,6.10
2019-04-11T23:52:01.500Z,6.10
2019-04-11T23:54:32.545Z,6.10
2019-04-11T23:57:03.895Z,6.10
2019-04-11T23:59:35.614Z,6.00
